This site, now in its 22nd season, is a labour of love and fun from one of Ottawa's most avid time trialists and number crunchers. It adheres to and is permitted by the laws of Canada, promotes the objectives of every bicycle club whose results are shown, and is donated free of charge by myself for your enjoyment and usage. If you would like results from series you ride in to be shown here, give me (celia@drmath.ca) a shout!
NOTE that this site had to be quickly moved to a new server with a new version of Perl. Unfortunately the way of interacting with the web form has changed, so I'll have to do some reprogramming to get the buttons and search boxes working. Meanwhile the links work fine and you can always add query specifications into the URL! :-)


Index Page
ATT OTT WTT AATT CFCTT VVVTT
Help resultformat:
Case-sensitive

OBC Open TT Series - 2016-Jun-09 - 15km (Rockliffe Pkwy) (EvtFactor = 0.8917)

Ottawa Weather (18:00): Mostly Cloudy. Temperature: 17.8C, Wind: NW 26 gust 40km/h, Relative humidity: 32%, Dew point: 1C, Pressure: 101.0kPa, Visibility: 24km.
Ottawa Weather (19:00): Mostly Cloudy. Temperature: 16.8C, Wind: NNW 25 gust 39km/h, Relative humidity: 33%, Dew point: 1C, Pressure: 101.1kPa, Visibility: 24km.
Ottawa Weather (20:00): Mostly Cloudy. Temperature: 15.6C, Wind: NW 26 gust 40km/h, Relative humidity: 35%, Dew point: 0C, Pressure: 101.1kPa, Visibility: 24km.

Thanks go to Sandy Miller for taking pictures at the start and finish. Many thanks as well to the wonderful volunteers who run this event.

Strong winds from the northwest gave tonight's riders a good challenge. The fastest overall was a woman - Karol-Ann Canuel - in 19:46, a new personal database best for her on this course. Karol-Ann was the Canadian National Women's Time Trial Champion in 2015, and she is now a professional cyclist with the Boels-Dolman cycling team. Note that Karol-Ann's time tonight is currently the second of the fastest female 15km times in my database - second and only 6 seconds slower to Sue Schlatter's mark (in her late 40's) of 19:40. About half of the riders improved upon previous season-series bests and 11 improved upon their previous 15km database best. Congratulations!

These results were first posted on the OBC web site circa 22:00 on 2016-Jun-09 and are available here for your added pleasure and analysis.

 
 

BESTS?
 
1 Canuel, Karol-Ann BD 19:46 45.531 1/45 U30F 1/2 1.0912
2 Diaz, Rodrigo  OBC/EUR 19:54 45.226 2/45 U40M 1/5 1.0025
3 Moltmaker, Tijmen IND 20:24 44.118 3/45 U40M 2/5 1.0423
4 Chapman, Stephen IND 20:28 43.974 4/45 U40M 3/5 1.0025
5 Miles, Carson OBC 20:29 43.938 5/45 U17M 1/1 0.9638
6 Toelke, Joachim EUR 20:33 43.796 6/45 U50M 1/9  
7 Danner, Dale CYC 20:37 43.654 7/45 U50M 2/9  
8 King, Dustin OBC 20:56 42.994 8/45 U30M 1/6 1.1165
9 Lavoie, Marcel  WQW 21:08 42.587 9/45 U50M 3/9 0.9194
10 Tremblay-Gravel, Mathieu IND 21:17 42.287 10/45 U30M 2/6 0.9883
11 Angeles, Robyn  IND 21:55 41.065 11/45 U60F 1/2 1.0511
12 Labonte, Philippe OBC 22:04 40.785 12/45 U30M 3/6 0.9015
Mullington, Chris WQW 22:04 40.785 12/45 U60M 1/7 0.9955
14 DeVidi, Robert  OBC 22:09 40.632 14/45 U60M 2/7 1.0482
15 Charlton, Christopher OBC 22:11 40.571 15/45 U70M 1/3 0.9688
16 Robitaille, Brian  OBC/FC 22:18 40.359 16/45 U60M 3/7 0.8858
Szkraba, Adam OBC 22:18 40.359 16/45 U30M 4/6 0.9734
18 Kinos, John OBC 22:20 40.299 18/45 U60M 4/7 1.0294
19 Page, Graham OBC/NTF 22:22 40.238 19/45 U40M 4/5 0.9646
20 Roy, Eric IND 22:27 40.089 20/45 U50M 4/9  
21 Martin, David OBC 22:51 39.387 21/45 U50M 5/9 1.0512
22 Burge, Larry  OBC 23:05 38.989 22/45 U60M 5/7 0.9179
23 Metsaranta, Juha OBC 23:12 38.793 23/45 U50M 6/9 1.0437
24 Till, Michael WQW 23:15 38.710 24/45 U60M 6/7 0.8903
25 Trepanier, Mathieu OBC 23:19 38.599 25/45 U50M 7/9 0.9453
26 Thompson, William OBC 23:26 38.407 26/45 U60M 7/7 0.9252
27 Canning, Jim 613 23:27 38.380 27/45 U50M 8/9 0.9768
28 Hurtubise, Jonah OBC 23:28 38.352 28/45 U19M 1/1 0.9232
Prieur, Layla EUR 23:28 38.352 28/45 U50F 1/4  
30 Messier, Jill WQW 23:35 38.163 30/45 U30F 2/2 1.0694
31 Deschamps, Martin WQW 23:47 37.842 31/45 U50M 9/9 0.9688
32 Moerman, Bram  OBC 24:03 37.422 32/45 U80M 1/3 1.0210
33 Corpuz, John OBC 24:15 37.113 33/45 U30M 5/6 1.0891
34 Comtois Lecocq, Alex OBC 24:34 36.635 34/45 U40M 5/5 1.0102
35 Kandoy, Meylina OBC 24:46 36.339 35/45 U60F 2/2  
36 Guignard, Christian OBC 24:50 36.242 36/45 U70M 2/3 0.8878
37 Mijal, Vello OBC 25:47 34.906 37/45 U80M 2/3 1.0019
38 Cheff, Emmanuel OBC 26:01 34.593 38/45 U15M 1/1 1.0389
39 Zuiderveen, Thomas OBC 26:19 34.199 39/45 U30M 6/6 1.0601
40 Balint, John OBC 26:28 34.005 40/45 U80M 3/3 1.0171
41 McInnis, Celia  OBC/ABC 26:57 33.395 41/45 U70F 1/1 0.9258
42 Beauchamp, Angela  EUR 27:15 33.028 42/45 U50F 2/4 0.8051
Dobbs, Brian OBC 27:15 33.028 42/45 U70M 3/3 0.8956
44 Paquette, Josée OBC 27:36 32.609 44/45 U50F 3/4 1.0895
45 McLaren, Louise  OBC 29:05 30.946 45/45 U50F 4/4  
 
Average Speed of all of the above 45 finishes (675km in 17:29:44):38.581
>>>Average of the Average Speeds for these 45 finishes38.927<<<
 

The number of data records shown above is 45
The server processing of your query took: 0 wallclock secs ( 0.03 usr + 0.01 sys = 0.04 CPU)

Thanks to our Helpers: Michel Bernier, Alex McKnight, Jess Raymond, Peter Tregunno.

     


Mar 25 (Good Friday - cancelled)
May 3 (10km) May 5 May 10 May 10 (10km) May 12 May 17 May 17 (10km) May 19 May 24 May 24 (10km) May 26 May 31 May 31 (10km)
Jun 2 Jun 5 (40km) Jun 7 Jun 7
  Jun 9  
Jun 14 Jun 14 Jun 16 Jun 21 Jun 21 Jun 23 Jun 28 Jun 28 Jun 30
Jul 3 (40km) Jul 5 Jul 5 Jul 7 Jul 12 Jul 12 Jul 14 Jul 19 Jul 19 Jul 21 Jul 26 Jul 26 Jul 28
Aug 2 Aug 2 Aug 4 Aug 7 (40km) Aug 9 Aug 9 Aug 11 Aug 16 (canceled) Aug 16 (canceled) Aug 18 Aug 23 Aug 23 Aug 25 Aug 30 Aug 30 (Invitational)
Sep 1 Sep 4 (40km) Sep 6 Sep 8 Sep 13 Sep 20

WTT Rankings for All Participants
4 Best Speeds (≥4 WTT, ≤1 10km)     4 Best Speeds (≥4 WTT, ≤1 10km) by category
OTT Best Three 15km Rankings
Overall     by category     age-Hcap Female   age-Hcap Male
[OWA]TT BAR Ranking
Overall     by category     Rider "Consistency-Graph"
ABC BAR Ranking
Overall     by category     Rider "Consistency-Graph"
Other years
TT Calculator All TT People All TT events
ABC Home VVV Home
CKAP GOLD MEDAL
Other Links

Please send your comments and suggestions to: Celia McInnis
Copyright © 1998-2021 Celia McInnis. All rights reserved. Links are welcomed.